Time;durP1;ratioP1;P1;durP2;ratioP2;P2;SDS_P1;SDS_P2;PMS_P1;PMS_P2;Temp;Humidity;BMP_temperature;BMP_pressure;BME280_temperature;BME280_humidity;BME280_pressure;Samples;Min_cycle;Max_cycle;Signal;HPM_P1;HPM_P2
2021/04/27 00:01:50;;;;;;;;;;;6.10;62.90;;;;;;5033062;28;20003;-72
2021/04/27 00:04:16;;;;;;;;;;;6.00;63.10;;;;;;5030783;28;19928;-73
2021/04/27 00:06:42;;;;;;;;;;;6.00;63.30;;;;;;5028951;28;20273;-74
2021/04/27 00:09:08;;;;;;;;;;;6.00;63.50;;;;;;5031503;28;19988;-73
2021/04/27 00:11:34;;;;;;;;;;;5.80;63.90;;;;;;5030515;28;20218;-73
2021/04/27 00:14:00;;;;;;;;;;;5.70;64.50;;;;;;5030433;28;19917;-73
2021/04/27 00:16:26;;;;;;;;;;;5.70;64.50;;;;;;5031074;28;19921;-76
2021/04/27 00:18:51;;;;;;;;;;;5.60;65.20;;;;;;5028264;28;20183;-73
2021/04/27 00:21:17;;;;;;;;;;;5.50;66.10;;;;;;5031797;28;19967;-73
2021/04/27 00:23:42;;;;;;;;;;;5.40;66.00;;;;;;5030769;28;19971;-74
2021/04/27 00:26:08;;;;;;;;;;;5.20;68.30;;;;;;5031205;28;19917;-72
2021/04/27 00:28:33;;;;;;;;;;;4.80;69.30;;;;;;5028488;28;19929;-72
2021/04/27 00:31:02;;;;;;;;;;;4.40;69.90;;;;;;5031131;28;19928;-74
2021/04/27 00:33:27;;;;;;;;;;;4.30;70.90;;;;;;5028133;28;19949;-74
2021/04/27 00:35:53;;;;;;;;;;;4.10;71.20;;;;;;5029213;28;20383;-73
2021/04/27 00:38:18;;;;;;;;;;;3.90;72.70;;;;;;5025478;28;19924;-73
2021/04/27 00:40:44;;;;;;;;;;;3.80;72.90;;;;;;5030480;28;20011;-74
2021/04/27 00:43:09;;;;;;;;;;;3.70;73.50;;;;;;5030465;28;19920;-73
2021/04/27 00:45:35;;;;;;;;;;;3.50;74.80;;;;;;5009851;28;19932;-73
2021/04/27 00:48:01;;;;;;;;;;;3.30;75.40;;;;;;5029501;28;19932;-73
2021/04/27 00:50:31;;;;;;;;;;;3.20;75.70;;;;;;5029762;28;19921;-72
2021/04/27 00:52:57;;;;;;;;;;;3.10;75.50;;;;;;5025259;28;19917;-74
2021/04/27 00:55:23;;;;;;;;;;;3.10;76.00;;;;;;5010059;28;19929;-72
2021/04/27 00:57:49;;;;;;;;;;;3.00;75.80;;;;;;5029497;28;20007;-74
2021/04/27 01:00:16;;;;;;;;;;;2.90;75.70;;;;;;5029891;28;20207;-73
2021/04/27 01:02:42;;;;;;;;;;;3.00;75.50;;;;;;5030806;28;19924;-73
2021/04/27 01:05:10;;;;;;;;;;;3.10;75.00;;;;;;5011089;28;19917;-76
2021/04/27 01:07:37;;;;;;;;;;;3.30;73.90;;;;;;5029915;28;19925;-73
2021/04/27 01:10:06;;;;;;;;;;;3.50;73.40;;;;;;5010971;28;19921;-73
2021/04/27 01:12:33;;;;;;;;;;;3.40;73.60;;;;;;5029658;28;19925;-73
2021/04/27 01:15:06;;;;;;;;;;;3.30;75.20;;;;;;5012231;28;19932;-74
2021/04/27 01:17:32;;;;;;;;;;;3.40;74.20;;;;;;5028328;28;20066;-74
2021/04/27 01:20:03;;;;;;;;;;;3.40;74.80;;;;;;5030228;28;19914;-74
2021/04/27 01:22:47;;;;;;;;;;;3.10;75.40;;;;;;5028319;28;20218;-73
2021/04/27 01:25:15;;;;;;;;;;;2.90;75.80;;;;;;5029444;28;21236;-73
2021/04/27 01:27:42;;;;;;;;;;;2.80;77.20;;;;;;5029369;28;19968;-73
2021/04/27 01:30:08;;;;;;;;;;;2.70;77.60;;;;;;5028206;28;19932;-74
2021/04/27 01:32:34;;;;;;;;;;;2.60;78.10;;;;;;5030017;28;19967;-74
2021/04/27 01:35:00;;;;;;;;;;;2.50;78.50;;;;;;5034761;28;19971;-73
2021/04/27 01:37:25;;;;;;;;;;;2.50;79.30;;;;;;5028284;28;19967;-73
2021/04/27 01:39:52;;;;;;;;;;;2.50;79.20;;;;;;5029297;28;19951;-74
2021/04/27 01:42:18;;;;;;;;;;;2.40;79.50;;;;;;5029691;28;19988;-74
2021/04/27 01:44:44;;;;;;;;;;;2.40;79.90;;;;;;5029168;28;19928;-74
2021/04/27 01:47:10;;;;;;;;;;;2.30;79.80;;;;;;5029452;28;20294;-74
2021/04/27 01:49:38;;;;;;;;;;;2.30;80.20;;;;;;5029434;28;20309;-74
2021/04/27 01:52:04;;;;;;;;;;;2.30;79.90;;;;;;5029628;28;20290;-74
2021/04/27 01:54:30;;;;;;;;;;;2.30;80.10;;;;;;5008134;28;19961;-74
2021/04/27 01:56:56;;;;;;;;;;;2.30;80.10;;;;;;5029330;28;19921;-73
2021/04/27 01:59:21;;;;;;;;;;;2.20;80.40;;;;;;5008858;28;19918;-73
2021/04/27 02:01:47;;;;;;;;;;;2.20;80.50;;;;;;5047270;28;19921;-73
2021/04/27 02:04:19;;;;;;;;;;;2.10;80.80;;;;;;5029186;28;19921;-73
2021/04/27 02:06:45;;;;;;;;;;;2.10;81.20;;;;;;5028302;28;19928;-72
2021/04/27 02:09:11;;;;;;;;;;;2.00;81.80;;;;;;5029212;28;19914;-73
2021/04/27 02:11:38;;;;;;;;;;;1.90;82.30;;;;;;5029612;28;20326;-75
2021/04/27 02:14:04;;;;;;;;;;;1.80;82.20;;;;;;5009015;28;19949;-74
2021/04/27 02:16:50;;;;;;;;;;;1.90;82.60;;;;;;5029782;28;20241;-74
2021/04/27 02:19:16;;;;;;;;;;;1.70;83.00;;;;;;5017459;28;19928;-74
2021/04/27 02:21:42;;;;;;;;;;;1.60;83.30;;;;;;5028232;28;19917;-73
2021/04/27 02:24:08;;;;;;;;;;;1.70;83.10;;;;;;5028715;28;19913;-74
2021/04/27 02:26:34;;;;;;;;;;;1.90;81.40;;;;;;5009689;28;19925;-74
2021/04/27 02:29:06;;;;;;;;;;;2.60;77.50;;;;;;5028686;28;19929;-73
2021/04/27 02:31:32;;;;;;;;;;;3.10;75.00;;;;;;5029798;28;20370;-73
2021/04/27 02:33:59;;;;;;;;;;;3.50;73.40;;;;;;5029679;28;20317;-75
2021/04/27 02:36:26;;;;;;;;;;;3.70;72.40;;;;;;5034455;28;20301;-73
2021/04/27 02:38:51;;;;;;;;;;;3.90;71.60;;;;;;5036337;28;20256;-75
2021/04/27 02:41:17;;;;;;;;;;;4.00;71.20;;;;;;5032566;28;20047;-73
2021/04/27 02:43:43;;;;;;;;;;;4.10;71.00;;;;;;5032481;28;19921;-73
2021/04/27 02:46:08;;;;;;;;;;;4.20;70.50;;;;;;5032281;28;19917;-73
2021/04/27 02:48:34;;;;;;;;;;;4.30;69.90;;;;;;5029246;28;19921;-73
2021/04/27 02:51:00;;;;;;;;;;;4.40;69.50;;;;;;5008096;28;19917;-73
2021/04/27 02:53:26;;;;;;;;;;;4.50;69.40;;;;;;5031500;28;19921;-72
2021/04/27 02:55:52;;;;;;;;;;;4.50;69.50;;;;;;5032539;28;19921;-73
2021/04/27 02:58:18;;;;;;;;;;;4.40;69.30;;;;;;5032118;28;20310;-73
2021/04/27 03:00:44;;;;;;;;;;;4.40;69.50;;;;;;5033088;28;19935;-74
2021/04/27 03:03:10;;;;;;;;;;;4.40;69.20;;;;;;5032183;28;19921;-74
2021/04/27 03:05:36;;;;;;;;;;;4.50;69.10;;;;;;5032022;28;20605;-74
2021/04/27 03:08:01;;;;;;;;;;;4.60;68.90;;;;;;5010018;28;20006;-73
2021/04/27 03:10:27;;;;;;;;;;;4.60;69.00;;;;;;5031789;28;19922;-74
2021/04/27 03:12:53;;;;;;;;;;;4.60;68.90;;;;;;5032034;28;19921;-74
2021/04/27 03:15:18;;;;;;;;;;;4.50;69.20;;;;;;5030791;28;19921;-73
2021/04/27 03:17:44;;;;;;;;;;;4.50;69.20;;;;;;5031001;28;20605;-73
2021/04/27 03:20:10;;;;;;;;;;;4.40;69.60;;;;;;5011223;28;20016;-73
2021/04/27 03:22:36;;;;;;;;;;;4.30;70.10;;;;;;5030076;28;19927;-72
2021/04/27 03:25:03;;;;;;;;;;;4.40;70.20;;;;;;5031766;28;19929;-74
2021/04/27 03:27:29;;;;;;;;;;;4.40;70.20;;;;;;5012224;28;20317;-73
2021/04/27 03:29:54;;;;;;;;;;;4.50;69.80;;;;;;5034278;28;19928;-73
2021/04/27 03:32:20;;;;;;;;;;;4.50;69.80;;;;;;5037793;28;19913;-74
2021/04/27 03:34:45;;;;;;;;;;;4.50;69.90;;;;;;5037737;28;19917;-75
2021/04/27 03:37:11;;;;;;;;;;;4.50;70.10;;;;;;5036148;28;19992;-74
2021/04/27 03:39:37;;;;;;;;;;;4.50;70.20;;;;;;5014992;28;19913;-73
2021/04/27 03:42:03;;;;;;;;;;;4.50;70.30;;;;;;5035047;28;19916;-74
2021/04/27 03:44:28;;;;;;;;;;;4.50;70.10;;;;;;5031401;28;19921;-74
2021/04/27 03:46:54;;;;;;;;;;;4.50;70.20;;;;;;5016727;28;19927;-73
2021/04/27 03:49:20;;;;;;;;;;;4.40;70.70;;;;;;5032878;28;19935;-74
2021/04/27 03:51:45;;;;;;;;;;;4.40;70.90;;;;;;5030635;28;19997;-74
2021/04/27 03:54:11;;;;;;;;;;;4.40;70.80;;;;;;5031495;28;19931;-74
2021/04/27 03:56:37;;;;;;;;;;;4.30;71.10;;;;;;5033343;28;19914;-73
2021/04/27 03:59:03;;;;;;;;;;;4.30;71.40;;;;;;5032016;28;19913;-74
2021/04/27 04:01:28;;;;;;;;;;;4.20;71.50;;;;;;5031570;28;19956;-73
2021/04/27 04:03:54;;;;;;;;;;;4.20;71.90;;;;;;5030625;28;20344;-74
2021/04/27 04:06:19;;;;;;;;;;;4.10;72.50;;;;;;5033227;28;19917;-74
2021/04/27 04:08:45;;;;;;;;;;;4.00;72.90;;;;;;5030108;28;20298;-73
2021/04/27 04:11:11;;;;;;;;;;;3.90;73.10;;;;;;5031198;28;20272;-74
2021/04/27 04:13:37;;;;;;;;;;;3.90;73.40;;;;;;5029211;28;20000;-73
2021/04/27 04:16:03;;;;;;;;;;;3.80;73.70;;;;;;5031944;28;19921;-73
2021/04/27 04:18:28;;;;;;;;;;;3.80;74.10;;;;;;5031062;28;19925;-73
2021/04/27 04:20:54;;;;;;;;;;;3.70;74.20;;;;;;5031610;28;20560;-74
2021/04/27 04:23:20;;;;;;;;;;;3.70;74.20;;;;;;5030190;28;20186;-74
2021/04/27 04:25:45;;;;;;;;;;;3.50;74.20;;;;;;5029988;28;19924;-74
2021/04/27 04:28:11;;;;;;;;;;;3.10;74.70;;;;;;5029019;28;19921;-74
2021/04/27 04:30:37;;;;;;;;;;;2.90;75.20;;;;;;5029526;28;20051;-74
2021/04/27 04:33:03;;;;;;;;;;;2.70;75.90;;;;;;5029970;28;19913;-73
2021/04/27 04:35:29;;;;;;;;;;;2.50;76.40;;;;;;5030286;28;19928;-75
2021/04/27 04:37:54;;;;;;;;;;;2.50;77.20;;;;;;5027798;28;19961;-73
2021/04/27 04:40:20;;;;;;;;;;;2.70;77.90;;;;;;5029244;28;19932;-74
2021/04/27 04:42:46;;;;;;;;;;;3.00;77.30;;;;;;5032975;28;19963;-74
2021/04/27 04:45:12;;;;;;;;;;;3.30;76.10;;;;;;5033840;28;20306;-74
2021/04/27 04:47:38;;;;;;;;;;;3.50;75.60;;;;;;5007568;28;19917;-75
2021/04/27 04:50:04;;;;;;;;;;;3.60;75.60;;;;;;5025900;28;19944;-74
2021/04/27 04:52:30;;;;;;;;;;;3.70;75.10;;;;;;5009594;28;19921;-73
2021/04/27 04:54:56;;;;;;;;;;;3.80;74.90;;;;;;5026187;28;19929;-73
2021/04/27 04:57:21;;;;;;;;;;;3.90;74.80;;;;;;5029019;28;19925;-74
2021/04/27 04:59:47;;;;;;;;;;;3.90;74.90;;;;;;5029287;28;19940;-74
2021/04/27 05:02:13;;;;;;;;;;;4.00;74.60;;;;;;5031132;28;19930;-73
2021/04/27 05:04:41;;;;;;;;;;;4.10;74.20;;;;;;5032441;28;19917;-74
2021/04/27 05:07:11;;;;;;;;;;;4.00;74.60;;;;;;5025303;28;20000;-75
2021/04/27 05:09:38;;;;;;;;;;;4.00;74.60;;;;;;5030324;28;19913;-74
2021/04/27 05:12:04;;;;;;;;;;;4.00;75.00;;;;;;5029464;28;20015;-74
2021/04/27 05:14:34;;;;;;;;;;;3.80;74.90;;;;;;5030267;28;19913;-75
2021/04/27 05:16:59;;;;;;;;;;;3.30;74.80;;;;;;5046061;28;19913;-74
2021/04/27 05:19:26;;;;;;;;;;;3.00;75.70;;;;;;5028305;28;19975;-74
2021/04/27 05:21:51;;;;;;;;;;;2.70;77.20;;;;;;5011984;28;20454;-73
2021/04/27 05:24:17;;;;;;;;;;;2.60;77.90;;;;;;5031500;28;19921;-75
2021/04/27 05:26:43;;;;;;;;;;;2.50;78.20;;;;;;5028938;28;19932;-74
2021/04/27 05:29:09;;;;;;;;;;;2.50;77.80;;;;;;5037790;28;19917;-73
2021/04/27 05:31:35;;;;;;;;;;;2.50;77.40;;;;;;5036067;28;20205;-72
2021/04/27 05:34:00;;;;;;;;;;;2.50;77.30;;;;;;5018372;28;19920;-74
2021/04/27 05:36:26;;;;;;;;;;;2.60;76.70;;;;;;5033975;28;20392;-73
2021/04/27 05:38:51;;;;;;;;;;;2.70;76.40;;;;;;5035710;28;19940;-73
2021/04/27 05:41:17;;;;;;;;;;;2.80;76.30;;;;;;5035772;28;19939;-74
2021/04/27 05:43:42;;;;;;;;;;;2.80;76.10;;;;;;5036214;28;19909;-73
2021/04/27 05:46:08;;;;;;;;;;;2.90;76.00;;;;;;5035492;28;19928;-73
2021/04/27 05:48:34;;;;;;;;;;;2.90;76.20;;;;;;5035688;28;19971;-73
2021/04/27 05:51:00;;;;;;;;;;;3.00;76.10;;;;;;5035241;28;19916;-74
2021/04/27 05:53:25;;;;;;;;;;;3.20;75.90;;;;;;5034973;28;19959;-73
2021/04/27 05:55:51;;;;;;;;;;;3.30;75.20;;;;;;5034936;28;20091;-74
2021/04/27 05:58:16;;;;;;;;;;;3.40;75.10;;;;;;5035614;28;19917;-72
2021/04/27 06:00:42;;;;;;;;;;;3.50;74.80;;;;;;5035582;28;19910;-74
2021/04/27 06:03:07;;;;;;;;;;;3.60;74.40;;;;;;5035798;28;20360;-74
2021/04/27 06:05:33;;;;;;;;;;;3.70;74.30;;;;;;5035117;28;19939;-74
2021/04/27 06:07:59;;;;;;;;;;;3.80;74.20;;;;;;5011813;28;19917;-74
2021/04/27 06:10:24;;;;;;;;;;;3.80;74.20;;;;;;5031755;28;19959;-74
2021/04/27 06:12:50;;;;;;;;;;;3.90;74.10;;;;;;5048960;28;20004;-75
2021/04/27 06:15:18;;;;;;;;;;;4.10;74.60;;;;;;5031342;28;19925;-74
2021/04/27 06:17:44;;;;;;;;;;;4.30;74.60;;;;;;5033953;28;20312;-74
2021/04/27 06:20:10;;;;;;;;;;;4.50;74.10;;;;;;5032974;28;19921;-74
2021/04/27 06:22:36;;;;;;;;;;;4.60;73.60;;;;;;5032548;28;19952;-74
2021/04/27 06:25:03;;;;;;;;;;;4.70;73.20;;;;;;5034920;28;19921;-74
2021/04/27 06:27:29;;;;;;;;;;;4.80;72.60;;;;;;5033505;28;21401;-74
2021/04/27 06:29:55;;;;;;;;;;;4.80;72.40;;;;;;5013049;28;19916;-75
2021/04/27 06:32:21;;;;;;;;;;;4.90;72.70;;;;;;5033487;28;20008;-75
2021/04/27 06:34:47;;;;;;;;;;;4.90;72.80;;;;;;5033712;28;20000;-75
2021/04/27 06:37:13;;;;;;;;;;;5.10;72.30;;;;;;5036450;28;19914;-74
2021/04/27 06:39:39;;;;;;;;;;;5.30;71.50;;;;;;5038290;28;20368;-74
2021/04/27 06:42:05;;;;;;;;;;;5.50;71.20;;;;;;5014724;28;19913;-75
2021/04/27 06:44:31;;;;;;;;;;;5.70;70.40;;;;;;5033490;28;20016;-75
2021/04/27 06:46:57;;;;;;;;;;;5.90;69.70;;;;;;5013192;28;20643;-75
2021/04/27 06:49:22;;;;;;;;;;;6.10;70.50;;;;;;5032543;28;19917;-74
2021/04/27 06:51:48;;;;;;;;;;;6.10;69.80;;;;;;5033685;28;19966;-73
2021/04/27 06:54:13;;;;;;;;;;;6.30;70.30;;;;;;5033748;28;20329;-75
2021/04/27 06:56:40;;;;;;;;;;;6.40;69.80;;;;;;5033718;28;19974;-75
2021/04/27 06:59:06;;;;;;;;;;;6.40;69.70;;;;;;5032934;28;19929;-73
2021/04/27 07:01:32;;;;;;;;;;;6.40;70.20;;;;;;5034002;28;19921;-75
2021/04/27 07:03:58;;;;;;;;;;;6.40;70.60;;;;;;5012760;28;19947;-75
2021/04/27 07:06:23;;;;;;;;;;;6.40;71.70;;;;;;5012190;28;19923;-74
2021/04/27 07:08:49;;;;;;;;;;;6.50;70.70;;;;;;5031324;28;19920;-74
2021/04/27 07:11:14;;;;;;;;;;;6.60;70.30;;;;;;5032346;28;19944;-74
2021/04/27 07:13:40;;;;;;;;;;;6.60;70.80;;;;;;5032203;28;20302;-73
2021/04/27 07:16:05;;;;;;;;;;;6.80;70.90;;;;;;5032432;28;19921;-73
2021/04/27 07:18:31;;;;;;;;;;;7.00;70.10;;;;;;5031950;28;19923;-74
2021/04/27 07:20:56;;;;;;;;;;;7.20;70.00;;;;;;5031178;28;19952;-74
2021/04/27 07:23:22;;;;;;;;;;;7.30;69.60;;;;;;5031126;28;19921;-74
2021/04/27 07:25:47;;;;;;;;;;;7.50;69.50;;;;;;5032430;28;19979;-75
2021/04/27 07:28:13;;;;;;;;;;;7.60;70.00;;;;;;5032276;28;19924;-75
2021/04/27 07:30:38;;;;;;;;;;;7.70;69.60;;;;;;5031779;28;19917;-75
2021/04/27 07:33:05;;;;;;;;;;;7.80;70.00;;;;;;5020431;28;19925;-74
2021/04/27 07:35:30;;;;;;;;;;;7.90;69.80;;;;;;5017505;28;19959;-75
2021/04/27 07:38:00;;;;;;;;;;;8.10;69.60;;;;;;5017454;28;19913;-74
2021/04/27 07:40:26;;;;;;;;;;;8.40;69.00;;;;;;5034091;28;19931;-76
2021/04/27 07:42:52;;;;;;;;;;;8.60;68.80;;;;;;5031983;28;19917;-75
2021/04/27 07:45:17;;;;;;;;;;;9.00;67.60;;;;;;5031117;28;20020;-73
2021/04/27 07:47:43;;;;;;;;;;;9.80;66.10;;;;;;5031499;28;20213;-74
2021/04/27 07:50:09;;;;;;;;;;;10.80;64.20;;;;;;5032448;28;21346;-74
2021/04/27 07:52:35;;;;;;;;;;;11.70;61.80;;;;;;5030272;28;19982;-74
2021/04/27 07:55:02;;;;;;;;;;;12.50;60.60;;;;;;5031396;28;20385;-76
2021/04/27 07:57:28;;;;;;;;;;;12.90;59.60;;;;;;5031732;28;20264;-75
2021/04/27 07:59:53;;;;;;;;;;;13.30;58.60;;;;;;5032108;28;19920;-75
2021/04/27 08:02:19;;;;;;;;;;;13.60;57.20;;;;;;5031477;28;19913;-75
2021/04/27 08:04:46;;;;;;;;;;;13.90;56.80;;;;;;5034826;28;20019;-75
2021/04/27 08:07:12;;;;;;;;;;;14.30;56.50;;;;;;5030892;28;19978;-74
2021/04/27 08:09:37;;;;;;;;;;;14.30;56.30;;;;;;5032568;28;19921;-74
2021/04/27 08:12:03;;;;;;;;;;;14.80;55.80;;;;;;5012005;28;20388;-74
2021/04/27 08:14:29;;;;;;;;;;;14.60;54.50;;;;;;5030921;28;19921;-74
2021/04/27 08:16:54;;;;;;;;;;;14.40;55.30;;;;;;5031317;28;19925;-74
2021/04/27 08:19:20;;;;;;;;;;;14.60;55.60;;;;;;5031040;28;19913;-74
2021/04/27 08:21:45;;;;;;;;;;;14.90;54.80;;;;;;5029526;28;20321;-74
2021/04/27 08:24:11;;;;;;;;;;;14.80;55.10;;;;;;5031320;28;20318;-75
2021/04/27 08:26:36;;;;;;;;;;;14.30;55.90;;;;;;5032095;28;19968;-74
2021/04/27 08:29:02;;;;;;;;;;;14.20;55.60;;;;;;5034034;28;20369;-75
2021/04/27 08:31:28;;;;;;;;;;;14.10;56.10;;;;;;5033330;28;20316;-74
2021/04/27 08:33:53;;;;;;;;;;;14.30;57.00;;;;;;5031213;28;19920;-75
2021/04/27 08:36:19;;;;;;;;;;;15.10;55.90;;;;;;5032549;28;19982;-74
2021/04/27 08:38:45;;;;;;;;;;;15.70;53.60;;;;;;5035672;28;19909;-73
2021/04/27 08:41:11;;;;;;;;;;;15.60;53.00;;;;;;5035447;28;19924;-73
2021/04/27 08:43:37;;;;;;;;;;;15.60;52.90;;;;;;5015932;28;19920;-73
2021/04/27 08:46:02;;;;;;;;;;;15.20;53.20;;;;;;5005064;28;19920;-73
2021/04/27 08:48:28;;;;;;;;;;;15.40;53.30;;;;;;5039482;28;19920;-73
2021/04/27 08:50:54;;;;;;;;;;;15.60;53.50;;;;;;5032634;28;19942;-74
2021/04/27 08:53:21;;;;;;;;;;;15.80;53.10;;;;;;5034901;28;19931;-75
2021/04/27 08:55:47;;;;;;;;;;;15.80;53.50;;;;;;5036019;28;19919;-74
2021/04/27 08:58:16;;;;;;;;;;;15.70;52.50;;;;;;5033199;28;19917;-75
2021/04/27 09:00:42;;;;;;;;;;;15.40;53.80;;;;;;5034354;28;19913;-75
2021/04/27 09:03:08;;;;;;;;;;;16.00;52.40;;;;;;5031680;28;19921;-74
2021/04/27 09:05:35;;;;;;;;;;;16.30;52.60;;;;;;5027818;28;19919;-73
2021/04/27 09:08:01;;;;;;;;;;;16.20;51.50;;;;;;5048531;28;20257;-74
2021/04/27 09:10:40;;;;;;;;;;;16.20;51.50;;;;;;5035977;28;19917;-72
2021/04/27 09:13:15;;;;;;;;;;;16.20;52.50;;;;;;5018148;28;19995;-74
2021/04/27 09:15:48;;;;;;;;;;;16.30;53.00;;;;;;5033153;28;19913;-76
2021/04/27 09:18:30;;;;;;;;;;;16.70;51.30;;;;;;5010226;28;19917;-74
2021/04/27 09:20:57;;;;;;;;;;;16.80;52.40;;;;;;5030307;28;19940;-74
2021/04/27 09:23:24;;;;;;;;;;;17.60;50.90;;;;;;5029570;28;19921;-73
2021/04/27 09:26:28;;;;;;;;;;;18.30;49.50;;;;;;5031138;28;19916;-74
2021/04/27 09:28:54;;;;;;;;;;;18.50;49.90;;;;;;4969201;28;19922;-74
2021/04/27 09:31:41;;;;;;;;;;;18.70;48.90;;;;;;4969752;28;21119;-73
2021/04/27 09:34:21;;;;;;;;;;;18.20;49.10;;;;;;4987960;28;19921;-73
2021/04/27 09:36:47;;;;;;;;;;;18.20;48.70;;;;;;5030951;28;20209;-72
2021/04/27 09:39:15;;;;;;;;;;;18.20;48.30;;;;;;5032417;28;19928;-73
2021/04/27 09:41:40;;;;;;;;;;;18.10;49.30;;;;;;5017929;28;19913;-73
2021/04/27 09:44:25;;;;;;;;;;;17.80;48.70;;;;;;5014871;28;20004;-74
2021/04/27 09:47:09;;;;;;;;;;;17.70;50.20;;;;;;5036466;28;19925;-74
2021/04/27 09:49:35;;;;;;;;;;;17.80;50.50;;;;;;5036586;28;20213;-74
2021/04/27 09:52:05;;;;;;;;;;;18.70;47.90;;;;;;5034504;28;19940;-74
2021/04/27 09:54:31;;;;;;;;;;;17.80;49.10;;;;;;5013293;28;19929;-74
2021/04/27 09:56:56;;;;;;;;;;;17.90;50.70;;;;;;5034852;28;19928;-74
2021/04/27 09:59:25;;;;;;;;;;;17.80;50.10;;;;;;5033535;28;20329;-74
2021/04/27 10:01:55;;;;;;;;;;;17.60;51.00;;;;;;5038800;28;19921;-74
2021/04/27 10:04:22;;;;;;;;;;;17.60;51.20;;;;;;5036994;28;19913;-73
2021/04/27 10:06:48;;;;;;;;;;;18.00;51.30;;;;;;5025299;28;20265;-74
2021/04/27 10:09:14;;;;;;;;;;;18.50;50.00;;;;;;5026690;28;19917;-74
2021/04/27 10:11:39;;;;;;;;;;;19.10;48.10;;;;;;5034309;28;19998;-74
2021/04/27 10:14:07;;;;;;;;;;;19.30;48.30;;;;;;5034372;28;20008;-74
2021/04/27 10:16:33;;;;;;;;;;;19.00;48.90;;;;;;5033544;28;19913;-74
2021/04/27 10:18:59;;;;;;;;;;;18.70;49.30;;;;;;5034019;28;19921;-74
2021/04/27 10:21:26;;;;;;;;;;;18.90;47.30;;;;;;5036261;28;19913;-74
2021/04/27 10:23:52;;;;;;;;;;;18.60;49.50;;;;;;5038157;28;19944;-73
2021/04/27 10:26:22;;;;;;;;;;;19.20;47.60;;;;;;5037162;28;19921;-74
2021/04/27 10:29:07;;;;;;;;;;;18.90;49.60;;;;;;5033135;28;19920;-74
2021/04/27 10:31:34;;;;;;;;;;;19.00;48.10;;;;;;5014256;28;19961;-74
2021/04/27 10:34:05;;;;;;;;;;;19.60;47.00;;;;;;5000724;28;19952;-74
2021/04/27 10:36:31;;;;;;;;;;;19.60;48.20;;;;;;5021207;28;20004;-74
2021/04/27 10:38:58;;;;;;;;;;;19.60;47.60;;;;;;5026280;28;19952;-74
2021/04/27 10:41:41;;;;;;;;;;;20.00;47.60;;;;;;5043254;28;20230;-75
2021/04/27 10:44:07;;;;;;;;;;;20.50;46.00;;;;;;5033459;28;19913;-74
2021/04/27 10:46:35;;;;;;;;;;;20.20;46.10;;;;;;5030878;28;20449;-74
2021/04/27 10:49:18;;;;;;;;;;;20.10;45.30;;;;;;5038261;28;19917;-74
2021/04/27 10:51:44;;;;;;;;;;;19.40;44.90;;;;;;5038337;28;19913;-74
2021/04/27 10:54:15;;;;;;;;;;;19.90;46.50;;;;;;5005992;28;19941;-75
2021/04/27 10:56:54;;;;;;;;;;;20.50;45.70;;;;;;5010741;28;20303;-74
2021/04/27 10:59:22;;;;;;;;;;;20.30;45.70;;;;;;5024066;28;19972;-74
2021/04/27 11:01:49;;;;;;;;;;;20.50;46.40;;;;;;5009401;28;19913;-75
2021/04/27 11:04:40;;;;;;;;;;;20.10;47.10;;;;;;5009636;28;19914;-74
2021/04/27 11:07:12;;;;;;;;;;;20.20;46.20;;;;;;5008302;28;19933;-75
2021/04/27 11:09:38;;;;;;;;;;;20.20;45.40;;;;;;5012420;28;19913;-74
2021/04/27 11:12:36;;;;;;;;;;;20.20;46.40;;;;;;5013041;28;19913;-75
2021/04/27 11:15:06;;;;;;;;;;;20.40;45.50;;;;;;4973616;28;20007;-74
2021/04/27 11:17:34;;;;;;;;;;;19.60;46.50;;;;;;5014643;28;19921;-75
2021/04/27 11:20:00;;;;;;;;;;;19.20;47.30;;;;;;5013169;28;20334;-74
2021/04/27 11:22:31;;;;;;;;;;;19.20;47.40;;;;;;4998058;28;19937;-75
2021/04/27 11:24:57;;;;;;;;;;;19.20;46.80;;;;;;5015257;28;19921;-73
2021/04/27 11:27:22;;;;;;;;;;;19.20;47.20;;;;;;5017700;28;19925;-75
2021/04/27 11:29:56;;;;;;;;;;;19.20;47.10;;;;;;5022666;28;19913;-73
2021/04/27 11:32:22;;;;;;;;;;;19.00;47.70;;;;;;5020205;28;19914;-74
2021/04/27 11:34:59;;;;;;;;;;;19.00;48.50;;;;;;5017575;28;19910;-73
2021/04/27 11:37:26;;;;;;;;;;;19.50;46.50;;;;;;5012956;28;19916;-73
2021/04/27 11:39:52;;;;;;;;;;;19.40;45.50;;;;;;5001404;28;20335;-74
2021/04/27 11:42:22;;;;;;;;;;;18.70;46.80;;;;;;5015885;28;19913;-74
2021/04/27 11:44:47;;;;;;;;;;;18.90;47.80;;;;;;4988820;28;19925;-74
2021/04/27 11:47:17;;;;;;;;;;;19.10;46.20;;;;;;5001904;28;19932;-75
2021/04/27 11:49:46;;;;;;;;;;;18.90;47.60;;;;;;5017857;28;19945;-74
2021/04/27 11:52:12;;;;;;;;;;;19.10;46.80;;;;;;5015452;28;19918;-72
2021/04/27 11:54:37;;;;;;;;;;;19.40;47.00;;;;;;4997787;28;19953;-73
2021/04/27 11:57:03;;;;;;;;;;;19.40;45.30;;;;;;5013607;28;19922;-74
2021/04/27 11:59:28;;;;;;;;;;;19.30;45.50;;;;;;5008439;28;19917;-74
2021/04/27 12:02:00;;;;;;;;;;;19.30;47.20;;;;;;4993850;28;21564;-75
2021/04/27 12:04:26;;;;;;;;;;;19.30;47.90;;;;;;5014868;28;20369;-74
2021/04/27 12:07:01;;;;;;;;;;;19.40;46.00;;;;;;5015048;28;19921;-74
2021/04/27 12:09:27;;;;;;;;;;;19.40;44.90;;;;;;4998529;28;19914;-73
2021/04/27 12:11:53;;;;;;;;;;;19.40;45.10;;;;;;5024688;28;19913;-75
2021/04/27 12:14:18;;;;;;;;;;;19.60;44.40;;;;;;5026993;28;19924;-74
2021/04/27 12:16:48;;;;;;;;;;;19.70;44.10;;;;;;5021707;28;19971;-74
2021/04/27 12:19:18;;;;;;;;;;;19.40;44.00;;;;;;5020512;28;19910;-75
2021/04/27 12:21:50;;;;;;;;;;;19.10;46.30;;;;;;5007608;28;20697;-74
2021/04/27 12:24:29;;;;;;;;;;;19.00;46.00;;;;;;5010478;28;20550;-75
2021/04/27 12:27:04;;;;;;;;;;;19.40;48.40;;;;;;5010240;28;19918;-74
2021/04/27 12:29:37;;;;;;;;;;;19.30;44.80;;;;;;5011555;28;19917;-74
2021/04/27 12:32:33;;;;;;;;;;;19.30;47.10;;;;;;5014375;28;19920;-74
2021/04/27 12:35:00;;;;;;;;;;;19.60;40.00;;;;;;5008412;28;19917;-74
2021/04/27 12:37:27;;;;;;;;;;;19.50;40.60;;;;;;5012716;28;19917;-74
2021/04/27 12:39:53;;;;;;;;;;;19.50;41.00;;;;;;5010543;28;19920;-75
2021/04/27 12:42:22;;;;;;;;;;;19.70;41.30;;;;;;5013954;28;20007;-75
2021/04/27 12:45:09;;;;;;;;;;;20.00;38.70;;;;;;5009046;28;20008;-77
2021/04/27 12:47:35;;;;;;;;;;;20.00;41.90;;;;;;5016550;28;20333;-75
2021/04/27 12:50:12;;;;;;;;;;;20.10;41.30;;;;;;5013843;28;19921;-75
2021/04/27 12:52:49;;;;;;;;;;;20.40;40.10;;;;;;4996325;28;20012;-74
2021/04/27 12:55:26;;;;;;;;;;;19.70;39.80;;;;;;5020224;28;19972;-76
2021/04/27 12:57:52;;;;;;;;;;;19.60;43.60;;;;;;5030249;28;20241;-74
2021/04/27 13:00:19;;;;;;;;;;;20.30;38.60;;;;;;5030829;28;19913;-74
2021/04/27 13:02:46;;;;;;;;;;;20.60;42.00;;;;;;5029548;28;19959;-74
2021/04/27 13:05:12;;;;;;;;;;;20.00;40.00;;;;;;5028150;28;20285;-75
2021/04/27 13:07:42;;;;;;;;;;;20.40;42.60;;;;;;5027231;28;19929;-74
2021/04/27 13:10:14;;;;;;;;;;;20.20;42.10;;;;;;5029184;28;20214;-75
2021/04/27 13:12:42;;;;;;;;;;;20.00;40.80;;;;;;5029588;28;19921;-76
2021/04/27 13:15:16;;;;;;;;;;;20.00;41.30;;;;;;5028527;28;20026;-75
2021/04/27 13:17:42;;;;;;;;;;;20.60;44.60;;;;;;5027880;28;19913;-75
2021/04/27 13:20:08;;;;;;;;;;;21.30;39.70;;;;;;5007537;28;19920;-75
2021/04/27 13:22:41;;;;;;;;;;;21.70;38.90;;;;;;5028266;28;19921;-74
2021/04/27 13:25:15;;;;;;;;;;;21.90;42.00;;;;;;5029489;28;20343;-75
2021/04/27 13:27:51;;;;;;;;;;;21.70;40.10;;;;;;5029941;28;19931;-76
2021/04/27 13:30:21;;;;;;;;;;;21.60;38.60;;;;;;5027151;28;19917;-75
2021/04/27 13:32:50;;;;;;;;;;;22.00;36.90;;;;;;5032862;28;19913;-74
2021/04/27 13:35:16;;;;;;;;;;;21.60;37.30;;;;;;5010957;28;19927;-74
2021/04/27 13:37:43;;;;;;;;;;;20.90;39.30;;;;;;5028583;28;19921;-74
2021/04/27 13:40:09;;;;;;;;;;;20.80;39.10;;;;;;5030032;28;20013;-75
2021/04/27 13:42:35;;;;;;;;;;;20.20;39.80;;;;;;5028917;28;20246;-74
2021/04/27 13:45:00;;;;;;;;;;;20.40;40.50;;;;;;5027437;28;19960;-75
2021/04/27 13:47:26;;;;;;;;;;;21.20;39.50;;;;;;5027188;28;20580;-75
2021/04/27 13:49:51;;;;;;;;;;;21.50;38.50;;;;;;5027870;28;19928;-75
2021/04/27 13:52:17;;;;;;;;;;;21.50;39.70;;;;;;5026798;28;19913;-75
2021/04/27 13:54:43;;;;;;;;;;;20.90;41.50;;;;;;5017404;28;19921;-74
2021/04/27 13:57:09;;;;;;;;;;;20.90;39.40;;;;;;5026913;28;19936;-75
2021/04/27 13:59:36;;;;;;;;;;;20.70;40.80;;;;;;5030193;28;19913;-75
2021/04/27 14:02:02;;;;;;;;;;;20.70;40.20;;;;;;5034996;28;19922;-75
2021/04/27 14:04:27;;;;;;;;;;;20.80;41.20;;;;;;5034845;28;19913;-75
2021/04/27 14:06:53;;;;;;;;;;;21.10;41.30;;;;;;5033241;28;19921;-75
2021/04/27 14:09:18;;;;;;;;;;;20.60;40.90;;;;;;5035312;28;20310;-75
2021/04/27 14:11:44;;;;;;;;;;;20.60;41.50;;;;;;5035570;28;19963;-75
2021/04/27 14:14:10;;;;;;;;;;;20.30;41.30;;;;;;5016841;28;19921;-75
2021/04/27 14:16:35;;;;;;;;;;;20.70;40.90;;;;;;5034636;28;20325;-75
2021/04/27 14:19:01;;;;;;;;;;;20.90;40.80;;;;;;5023885;28;20330;-76
2021/04/27 14:21:26;;;;;;;;;;;20.90;39.90;;;;;;5034156;28;19914;-75
2021/04/27 14:23:52;;;;;;;;;;;21.00;40.80;;;;;;5033706;28;19921;-75
2021/04/27 14:26:17;;;;;;;;;;;21.50;39.70;;;;;;5028223;28;19947;-76